Time;durP1;ratioP1;P1;durP2;ratioP2;P2;SDS_P1;SDS_P2;PMS_P1;PMS_P2;Temp;Humidity;BMP_temperature;BMP_pressure;BME280_temperature;BME280_humidity;BME280_pressure;Samples;Min_cycle;Max_cycle;Signal;HPM_P1;HPM_P2
2021/07/30 00:01:47;;;;;;;;;;;;;;;28.58;40.68;97030.66;5016661;28;1237;-82
2021/07/30 00:04:12;;;;;;;;;;;;;;;28.50;40.89;97032.41;5033159;28;1585;-82
2021/07/30 00:06:37;;;;;;;;;;;;;;;28.71;40.31;97034.78;5034170;28;1384;-82
2021/07/30 00:09:02;;;;;;;;;;;;;;;28.51;40.81;97031.44;5033947;28;1385;-82
2021/07/30 00:11:28;;;;;;;;;;;;;;;28.50;40.60;97017.34;5016220;28;1965;-82
2021/07/30 00:13:53;;;;;;;;;;;;;;;28.61;40.82;97030.38;4985828;28;1224;-82
2021/07/30 00:16:18;;;;;;;;;;;;;;;29.04;39.38;97025.25;4908969;28;1363;-82
2021/07/30 00:18:43;;;;;;;;;;;;;;;28.70;40.12;97030.44;5023783;28;1489;-82
2021/07/30 00:21:08;;;;;;;;;;;;;;;28.51;40.52;97026.97;5017142;28;1662;-82
2021/07/30 00:23:36;;;;;;;;;;;;;;;28.48;40.83;97027.28;5033276;28;1304;-82
2021/07/30 00:26:02;;;;;;;;;;;;;;;28.52;40.51;97028.66;5021889;28;1595;-82
2021/07/30 00:28:27;;;;;;;;;;;;;;;28.55;40.46;97019.53;5015387;28;1181;-82
2021/07/30 00:30:53;;;;;;;;;;;;;;;28.46;40.84;97021.28;5041826;28;1951;-82
2021/07/30 00:33:18;;;;;;;;;;;;;;;28.41;41.11;97023.56;5016212;28;1204;-82
2021/07/30 00:35:43;;;;;;;;;;;;;;;28.33;41.09;97024.31;5046090;22;2008;-49
2021/07/30 00:38:08;;;;;;;;;;;;;;;28.30;41.41;97026.44;5011809;28;1216;-49
2021/07/30 00:40:34;;;;;;;;;;;;;;;28.43;40.70;97034.84;4997409;28;1680;-50
2021/07/30 00:43:00;;;;;;;;;;;;;;;28.47;40.68;97024.78;4990605;28;1269;-49
2021/07/30 00:45:25;;;;;;;;;;;;;;;28.49;40.69;97030.75;4991916;28;1209;-49
2021/07/30 00:47:50;;;;;;;;;;;;;;;28.38;40.96;97031.00;4991855;28;1158;-49
2021/07/30 00:50:15;;;;;;;;;;;;;;;28.53;40.79;97032.13;5028565;23;2196;-53
2021/07/30 00:52:41;;;;;;;;;;;;;;;28.61;40.29;97032.22;5028769;28;1983;-52
2021/07/30 00:55:06;;;;;;;;;;;;;;;28.49;40.66;97030.75;5030633;28;1232;-52
2021/07/30 00:57:34;;;;;;;;;;;;;;;28.56;40.56;97039.78;5032721;28;1962;-54
2021/07/30 01:00:00;;;;;;;;;;;;;;;28.67;40.33;97041.34;5025104;28;1398;-53
2021/07/30 01:02:25;;;;;;;;;;;;;;;28.57;40.31;97044.09;5023761;28;1117;-53
2021/07/30 01:04:50;;;;;;;;;;;;;;;28.56;40.66;97050.38;5019440;28;1587;-53
2021/07/30 01:07:15;;;;;;;;;;;;;;;28.43;40.66;97047.28;5030629;28;1125;-53
2021/07/30 01:09:41;;;;;;;;;;;;;;;28.69;40.41;97047.38;5029972;28;1390;-51
2021/07/30 01:12:07;;;;;;;;;;;;;;;28.57;40.39;97047.56;5027656;28;1979;-53
2021/07/30 01:14:32;;;;;;;;;;;;;;;28.57;40.38;97039.63;5022725;28;1704;-54
2021/07/30 01:16:58;;;;;;;;;;;;;;;28.72;40.03;97044.38;5029937;28;1272;-52
2021/07/30 01:19:23;;;;;;;;;;;;;;;28.53;40.52;97040.09;5030166;28;1355;-53
2021/07/30 01:21:49;;;;;;;;;;;;;;;28.45;40.71;97037.38;5028016;28;1681;-50
2021/07/30 01:24:15;;;;;;;;;;;;;;;28.56;40.58;97043.25;5030657;28;1110;-53
2021/07/30 01:26:40;;;;;;;;;;;;;;;28.50;40.80;97043.84;5028016;28;1627;-52
2021/07/30 01:29:05;;;;;;;;;;;;;;;28.40;40.67;97040.47;5028618;28;1300;-53
2021/07/30 01:31:31;;;;;;;;;;;;;;;28.46;40.48;97047.00;5029140;28;1973;-53
2021/07/30 01:33:56;;;;;;;;;;;;;;;28.58;40.19;97043.94;5027896;28;1586;-53
2021/07/30 01:36:21;;;;;;;;;;;;;;;28.44;40.72;97041.84;5029396;28;1241;-53
2021/07/30 01:38:46;;;;;;;;;;;;;;;28.56;40.52;97037.94;5029124;28;1153;-53
2021/07/30 01:41:12;;;;;;;;;;;;;;;28.51;40.48;97034.09;5029235;28;1648;-52
2021/07/30 01:43:38;;;;;;;;;;;;;;;28.58;40.18;97037.78;5027589;28;1212;-53
2021/07/30 01:46:03;;;;;;;;;;;;;;;28.48;40.47;97042.34;5028942;28;1377;-50
2021/07/30 01:48:28;;;;;;;;;;;;;;;28.51;40.39;97044.69;5026991;28;1660;-53
2021/07/30 01:50:53;;;;;;;;;;;;;;;28.60;40.35;97049.13;5029124;28;1913;-52
2021/07/30 01:53:19;;;;;;;;;;;;;;;28.44;40.72;97048.94;5028998;28;1216;-50
2021/07/30 01:55:44;;;;;;;;;;;;;;;28.51;40.67;97042.03;5027650;28;1621;-52
2021/07/30 01:58:09;;;;;;;;;;;;;;;28.40;40.65;97036.97;5029797;28;1216;-52
2021/07/30 02:00:34;;;;;;;;;;;;;;;28.66;40.01;97040.53;5029793;28;1268;-54
2021/07/30 02:02:59;;;;;;;;;;;;;;;28.51;40.42;97045.53;5027864;28;1189;-52
2021/07/30 02:05:25;;;;;;;;;;;;;;;28.47;40.46;97040.69;5028226;28;1768;-52
2021/07/30 02:07:50;;;;;;;;;;;;;;;28.52;40.24;97049.03;5029554;28;1105;-51
2021/07/30 02:10:15;;;;;;;;;;;;;;;28.33;40.56;97042.88;5026921;28;1685;-55
2021/07/30 02:15:24;;;;;;;;;;;;;;;28.38;40.77;97038.94;5027925;28;1433;-51
2021/07/30 02:17:49;;;;;;;;;;;;;;;28.46;40.33;97050.47;5029571;28;1169;-51
2021/07/30 02:20:14;;;;;;;;;;;;;;;28.46;40.56;97042.50;5026761;28;2209;-52
2021/07/30 02:22:40;;;;;;;;;;;;;;;28.50;40.52;97053.63;5028343;28;1014;-54
2021/07/30 02:25:05;;;;;;;;;;;;;;;28.41;40.67;97044.78;5028740;28;1197;-52
2021/07/30 02:27:30;;;;;;;;;;;;;;;28.48;40.49;97050.31;5027947;28;1695;-53
2021/07/30 02:29:55;;;;;;;;;;;;;;;28.46;40.74;97042.50;5028376;28;1367;-53
2021/07/30 02:32:20;;;;;;;;;;;;;;;28.45;40.43;97037.38;5025557;28;1965;-51
2021/07/30 02:34:46;;;;;;;;;;;;;;;28.43;40.65;97032.19;5029136;28;1186;-51
2021/07/30 02:37:11;;;;;;;;;;;;;;;28.44;40.40;97031.22;5028125;28;1005;-52
2021/07/30 02:39:36;;;;;;;;;;;;;;;28.46;40.24;97039.88;5027999;28;1652;-54
2021/07/30 02:42:01;;;;;;;;;;;;;;;28.43;40.34;97034.84;5027243;28;1628;-52
2021/07/30 02:44:26;;;;;;;;;;;;;;;28.48;40.24;97037.88;5027155;28;1159;-52
2021/07/30 02:46:52;;;;;;;;;;;;;;;28.48;40.62;97040.53;5028383;28;1077;-53
2021/07/30 02:49:17;;;;;;;;;;;;;;;28.49;40.49;97036.06;5025973;28;1581;-53
2021/07/30 02:51:42;;;;;;;;;;;;;;;28.38;40.62;97041.59;5027979;28;1977;-52
2021/07/30 02:54:07;;;;;;;;;;;;;;;28.47;40.32;97043.34;5026584;28;2140;-52
2021/07/30 02:56:32;;;;;;;;;;;;;;;28.48;40.35;97037.06;5026758;28;1534;-51
2021/07/30 02:58:58;;;;;;;;;;;;;;;28.48;40.34;97037.06;5028471;28;1007;-53
2021/07/30 03:01:23;;;;;;;;;;;;;;;28.40;40.40;97043.09;5029479;28;1276;-52
2021/07/30 03:03:48;;;;;;;;;;;;;;;28.43;40.40;97045.44;5027691;28;1589;-53
2021/07/30 03:06:13;;;;;;;;;;;;;;;28.33;40.65;97047.34;5029477;28;1110;-52
2021/07/30 03:08:38;;;;;;;;;;;;;;;28.51;40.21;97050.00;5029359;28;1220;-53
2021/07/30 03:11:04;;;;;;;;;;;;;;;28.47;40.20;97043.34;5028367;28;2209;-52
2021/07/30 03:13:29;;;;;;;;;;;;;;;28.42;40.59;97050.91;5028059;28;1126;-52
2021/07/30 03:15:54;;;;;;;;;;;;;;;28.38;40.40;97044.25;5033262;28;1141;-52
2021/07/30 03:18:20;;;;;;;;;;;;;;;28.47;40.45;97043.34;5032700;28;1593;-52
2021/07/30 03:20:45;;;;;;;;;;;;;;;28.42;40.41;97042.94;5032790;28;1292;-51
2021/07/30 03:23:10;;;;;;;;;;;;;;;28.48;40.30;97035.22;5032772;28;1146;-52
2021/07/30 03:25:35;;;;;;;;;;;;;;;28.44;40.28;97033.03;5032337;28;2103;-53
2021/07/30 03:28:01;;;;;;;;;;;;;;;28.43;40.50;97036.66;5033509;28;1243;-50
2021/07/30 03:30:26;;;;;;;;;;;;;;;28.37;40.46;97035.47;5032869;28;1981;-53
2021/07/30 03:32:51;;;;;;;;;;;;;;;28.46;40.29;97034.56;5032772;28;1240;-52
2021/07/30 03:35:16;;;;;;;;;;;;;;;28.43;40.32;97032.19;5032666;28;1565;-53
2021/07/30 03:37:41;;;;;;;;;;;;;;;28.45;40.48;97024.94;5032501;28;1212;-53
2021/07/30 03:40:07;;;;;;;;;;;;;;;28.46;40.13;97029.25;5032957;28;1277;-52
2021/07/30 03:42:32;;;;;;;;;;;;;;;28.36;40.43;97033.81;5031212;28;2522;-53
2021/07/30 03:44:57;;;;;;;;;;;;;;;28.39;40.02;97030.00;5032087;28;1166;-52
2021/07/30 03:47:22;;;;;;;;;;;;;;;28.40;40.09;97026.38;5033125;28;1201;-50
2021/07/30 03:49:48;;;;;;;;;;;;;;;28.32;40.21;97027.13;5032434;28;1312;-51
2021/07/30 03:52:13;;;;;;;;;;;;;;;28.43;40.31;97026.06;5031542;28;1910;-51
2021/07/30 03:54:38;;;;;;;;;;;;;;;28.33;40.26;97024.31;5021867;28;1337;-52
2021/07/30 03:57:03;;;;;;;;;;;;;;;28.44;40.30;97036.53;5032356;28;1597;-50
2021/07/30 03:59:28;;;;;;;;;;;;;;;28.50;40.02;97038.56;5032516;28;1296;-50
2021/07/30 04:01:54;;;;;;;;;;;;;;;28.47;39.54;97033.56;5032392;28;1124;-51
2021/07/30 04:04:19;;;;;;;;;;;;;;;28.40;40.28;97029.03;5032560;28;1126;-52
2021/07/30 04:06:44;;;;;;;;;;;;;;;28.42;40.33;97025.22;5030738;28;1655;-53
2021/07/30 04:09:13;;;;;;;;;;;;;;;28.43;39.96;97024.22;5032338;28;1137;-53
2021/07/30 04:11:38;;;;;;;;;;;;;;;28.44;40.06;97028.56;5030168;28;1963;-53
2021/07/30 04:14:05;;;;;;;;;;;;;;;28.28;40.52;97023.06;5032466;28;1185;-54
2021/07/30 04:16:30;;;;;;;;;;;;;;;28.47;39.94;97025.59;5032090;28;1117;-54
2021/07/30 04:18:55;;;;;;;;;;;;;;;28.33;40.23;97031.44;5030765;28;1717;-52
2021/07/30 04:21:21;;;;;;;;;;;;;;;28.36;40.38;97033.81;5032000;28;1272;-53
2021/07/30 04:23:46;;;;;;;;;;;;;;;28.39;39.96;97035.31;5031539;28;1172;-53
2021/07/30 04:26:11;;;;;;;;;;;;;;;28.34;40.36;97041.88;5030228;28;1601;-53
2021/07/30 04:28:36;;;;;;;;;;;;;;;28.32;40.20;97043.03;5031780;28;1240;-53
2021/07/30 04:31:04;;;;;;;;;;;;;;;28.39;39.89;97028.19;5031940;28;1910;-51
2021/07/30 04:33:31;;;;;;;;;;;;;;;28.30;40.31;97031.75;5030216;28;1604;-53
2021/07/30 04:35:56;;;;;;;;;;;;;;;28.29;40.23;97020.31;5032164;28;1050;-53
2021/07/30 04:38:21;;;;;;;;;;;;;;;28.45;40.20;97035.53;5032001;28;1169;-51
2021/07/30 04:40:47;;;;;;;;;;;;;;;28.44;39.83;97025.94;5031518;28;1617;-52
2021/07/30 04:43:12;;;;;;;;;;;;;;;28.36;40.05;97026.69;5031880;28;1118;-50
2021/07/30 04:45:37;;;;;;;;;;;;;;;28.27;40.18;97035.47;5031948;28;1195;-51
2021/07/30 04:48:02;;;;;;;;;;;;;;;28.36;40.12;97031.16;5031703;28;1233;-50
2021/07/30 04:50:28;;;;;;;;;;;;;;;28.35;39.98;97025.00;5029892;28;1613;-53
2021/07/30 04:52:54;;;;;;;;;;;;;;;28.30;40.12;97026.44;5030285;28;1895;-52
2021/07/30 04:55:19;;;;;;;;;;;;;;;28.36;39.99;97020.53;5026961;28;1662;-52
2021/07/30 04:57:44;;;;;;;;;;;;;;;28.50;39.59;97021.81;5027686;28;1696;-53
2021/07/30 05:00:10;;;;;;;;;;;;;;;28.33;40.11;97021.66;5030537;28;1314;-52
2021/07/30 05:02:35;;;;;;;;;;;;;;;28.44;39.81;97017.09;5030698;28;1142;-53
2021/07/30 05:05:00;;;;;;;;;;;;;;;28.30;40.25;97011.38;5028039;28;1609;-53
2021/07/30 05:07:25;;;;;;;;;;;;;;;28.51;39.98;97021.66;5030498;28;1350;-51
2021/07/30 05:09:50;;;;;;;;;;;;;;;28.42;39.97;97019.09;5031480;28;1370;-53
2021/07/30 05:12:16;;;;;;;;;;;;;;;28.36;40.42;97015.25;5029373;28;1949;-51
2021/07/30 05:14:41;;;;;;;;;;;;;;;28.53;39.59;97022.34;5030246;28;1456;-50
2021/07/30 05:17:06;;;;;;;;;;;;;;;28.33;40.05;97023.47;5031484;28;1201;-52
2021/07/30 05:19:31;;;;;;;;;;;;;;;28.43;39.92;97020.75;5030254;28;1304;-53
2021/07/30 05:21:57;;;;;;;;;;;;;;;28.41;39.95;97020.06;5029782;28;1550;-52
2021/07/30 05:24:22;;;;;;;;;;;;;;;28.32;40.19;97025.31;5024172;28;1884;-51
2021/07/30 05:26:47;;;;;;;;;;;;;;;28.33;40.12;97028.78;5028009;28;1605;-52
2021/07/30 05:29:12;;;;;;;;;;;;;;;28.30;40.11;97026.44;5029588;28;1262;-53
2021/07/30 05:31:38;;;;;;;;;;;;;;;28.47;39.86;97025.59;5029459;28;1934;-53
2021/07/30 05:34:03;;;;;;;;;;;;;;;28.34;40.13;97023.31;5030725;28;1332;-53
2021/07/30 05:36:28;;;;;;;;;;;;;;;28.30;40.13;97029.94;5029254;28;1622;-51
2021/07/30 05:38:53;;;;;;;;;;;;;;;28.38;40.14;97025.69;5031152;28;1251;-53
2021/07/30 05:41:19;;;;;;;;;;;;;;;28.51;39.81;97021.66;5029431;28;1572;-51
2021/07/30 05:43:45;;;;;;;;;;;;;;;28.35;40.05;97021.50;5030350;28;1201;-51
2021/07/30 05:46:10;;;;;;;;;;;;;;;28.33;39.96;97021.66;5028874;28;1417;-51
2021/07/30 05:48:35;;;;;;;;;;;;;;;28.34;40.31;97020.66;5029605;28;1754;-51
2021/07/30 05:51:00;;;;;;;;;;;;;;;28.43;39.66;97026.88;5026256;28;1977;-52
2021/07/30 05:53:26;;;;;;;;;;;;;;;28.36;39.85;97010.78;5030547;28;1193;-52
2021/07/30 05:55:51;;;;;;;;;;;;;;;28.37;40.04;97014.25;5028913;28;1557;-54
2021/07/30 05:58:16;;;;;;;;;;;;;;;28.47;39.70;97017.66;5029701;28;1406;-52
2021/07/30 06:00:41;;;;;;;;;;;;;;;28.39;39.58;97014.94;5029927;28;1223;-54
2021/07/30 06:03:07;;;;;;;;;;;;;;;28.47;39.71;97017.66;5028505;28;1421;-53
2021/07/30 06:05:32;;;;;;;;;;;;;;;28.39;39.87;97008.78;5028728;28;1600;-54
2021/07/30 06:07:57;;;;;;;;;;;;;;;28.31;40.19;97009.53;5027622;28;1437;-52
2021/07/30 06:10:23;;;;;;;;;;;;;;;28.33;40.05;97007.56;5028130;28;1616;-51
2021/07/30 06:12:48;;;;;;;;;;;;;;;28.39;39.83;97006.97;5028387;28;2281;-52
2021/07/30 06:15:14;;;;;;;;;;;;;;;28.41;39.30;97002.34;5028743;28;1346;-53
2021/07/30 06:17:39;;;;;;;;;;;;;;;28.34;39.79;97011.88;5029893;28;1168;-52
2021/07/30 06:20:05;;;;;;;;;;;;;;;28.38;40.01;97018.56;5028357;28;1625;-51
2021/07/30 06:22:34;;;;;;;;;;;;;;;28.44;39.78;97014.44;5029914;28;1098;-52
2021/07/30 06:24:59;;;;;;;;;;;;;;;28.32;40.05;97019.16;5028842;28;1492;-53
2021/07/30 06:27:24;;;;;;;;;;;;;;;28.39;39.83;97022.88;5028897;28;1509;-52
2021/07/30 06:29:49;;;;;;;;;;;;;;;28.36;39.89;97015.25;5028663;28;1276;-51
2021/07/30 06:32:14;;;;;;;;;;;;;;;28.41;39.79;97014.78;5028644;28;1907;-50
2021/07/30 06:34:40;;;;;;;;;;;;;;;28.27;40.34;97010.78;5029043;28;2072;-53
2021/07/30 06:37:05;;;;;;;;;;;;;;;28.36;39.79;97015.25;5029719;28;1259;-52
2021/07/30 06:39:30;;;;;;;;;;;;;;;28.42;39.93;97011.13;5029442;28;1486;-52
2021/07/30 06:41:55;;;;;;;;;;;;;;;28.48;39.73;97007.88;5029096;28;1589;-51
2021/07/30 06:44:22;;;;;;;;;;;;;;;28.43;39.81;97000.34;5028560;28;1287;-53
2021/07/30 06:46:47;;;;;;;;;;;;;;;28.37;39.90;97001.00;5028804;28;951;-51
2021/07/30 06:49:13;;;;;;;;;;;;;;;28.31;39.85;96996.28;5031993;28;1593;-52
2021/07/30 06:51:38;;;;;;;;;;;;;;;28.40;40.10;97000.69;5058913;22;1977;-49
2021/07/30 06:54:03;;;;;;;;;;;;;;;28.58;39.62;97003.31;5034241;28;1134;-50
2021/07/30 06:56:28;;;;;;;;;;;;;;;28.30;40.33;96994.63;5029942;28;1829;-50
2021/07/30 06:58:53;;;;;;;;;;;;;;;28.44;40.04;96996.75;5034176;28;1625;-48
2021/07/30 07:01:19;;;;;;;;;;;;;;;28.74;39.14;96997.31;5023134;28;1408;-49
2021/07/30 07:03:44;;;;;;;;;;;;;;;29.03;38.40;96997.88;5016092;28;1138;-49
2021/07/30 07:06:13;;;;;;;;;;;;;;;29.25;37.86;96998.34;5012601;28;1532;-47
2021/07/30 07:08:38;;;;;;;;;;;;;;;29.27;37.97;96999.00;5014411;28;1272;-49
2021/07/30 07:11:04;;;;;;;;;;;;;;;29.06;38.73;96999.38;5009663;28;1910;-47
2021/07/30 07:13:29;;;;;;;;;;;;;;;29.32;38.06;96994.06;5015534;28;1118;-49
2021/07/30 07:15:54;;;;;;;;;;;;;;;29.30;37.83;97001.34;5015174;28;1240;-49
2021/07/30 07:18:20;;;;;;;;;;;;;;;29.09;38.23;96999.91;5014733;28;1571;-48
2021/07/30 07:20:46;;;;;;;;;;;;;;;29.09;38.50;97001.75;5015486;28;1362;-47
2021/07/30 07:23:12;;;;;;;;;;;;;;;29.09;38.24;96999.91;5014615;28;1312;-49
2021/07/30 07:25:37;;;;;;;;;;;;;;;29.23;37.76;96998.50;5012235;28;1556;-49
2021/07/30 07:28:02;;;;;;;;;;;;;;;28.92;38.38;97000.81;5013328;28;1591;-49
2021/07/30 07:30:27;;;;;;;;;;;;;;;28.99;37.97;96999.16;5014318;28;1378;-49
2021/07/30 07:32:53;;;;;;;;;;;;;;;29.19;37.87;96992.66;5014428;28;1910;-49
2021/07/30 07:35:18;;;;;;;;;;;;;;;29.20;37.41;96993.50;5015041;28;1197;-48
2021/07/30 07:37:43;;;;;;;;;;;;;;;28.97;37.94;96995.84;5013728;28;1532;-49
2021/07/30 07:40:08;;;;;;;;;;;;;;;29.06;37.71;96989.59;5010404;28;1655;-47
2021/07/30 07:42:34;;;;;;;;;;;;;;;29.03;37.76;96997.03;5013708;28;1555;-47
2021/07/30 07:45:00;;;;;;;;;;;;;;;29.01;37.46;96994.56;5013768;28;1435;-47
2021/07/30 07:47:26;;;;;;;;;;;;;;;28.98;37.41;96994.00;5015791;28;1118;-47
2021/07/30 07:49:51;;;;;;;;;;;;;;;28.92;37.85;96987.53;5013586;28;1564;-49
2021/07/30 07:52:16;;;;;;;;;;;;;;;28.80;38.02;96988.72;5014904;28;1938;-49
2021/07/30 07:54:41;;;;;;;;;;;;;;;28.81;37.83;96996.53;5015736;28;1126;-49
2021/07/30 07:57:06;;;;;;;;;;;;;;;28.97;37.21;96993.19;5013749;28;1768;-48
2021/07/30 07:59:35;;;;;;;;;;;;;;;29.23;36.96;96998.50;5010210;28;1531;-49
2021/07/30 08:02:00;;;;;;;;;;;;;;;29.26;36.57;96997.34;5010380;28;1386;-49
2021/07/30 08:04:25;;;;;;;;;;;;;;;29.17;36.53;96994.66;5011521;28;1090;-48
2021/07/30 08:06:50;;;;;;;;;;;;;;;29.42;36.36;96998.25;5011132;28;1529;-48
2021/07/30 08:09:16;;;;;;;;;;;;;;;29.29;36.60;96991.72;5004336;28;2050;-48
2021/07/30 08:11:41;;;;;;;;;;;;;;;29.23;36.83;96995.84;5006246;28;1902;-49
2021/07/30 08:14:06;;;;;;;;;;;;;;;29.13;36.98;96987.97;5007663;28;1626;-49
2021/07/30 08:16:31;;;;;;;;;;;;;;;29.35;36.87;96985.78;5010951;28;1750;-48
2021/07/30 08:18:56;;;;;;;;;;;;;;;29.33;36.94;96987.75;5011220;28;1548;-49
2021/07/30 08:21:22;;;;;;;;;;;;;;;29.33;36.64;96993.06;5012280;28;1344;-49
2021/07/30 08:23:47;;;;;;;;;;;;;;;29.15;37.17;96991.31;5010435;28;1348;-49
2021/07/30 08:26:12;;;;;;;;;;;;;;;28.49;39.10;96983.00;5006582;28;1523;-50
2021/07/30 08:28:37;;;;;;;;;;;;;;;28.55;39.35;96988.53;5011371;28;1098;-50
2021/07/30 08:31:02;;;;;;;;;;;;;;;28.77;38.60;96992.53;5010851;28;1949;-50
2021/07/30 08:33:28;;;;;;;;;;;;;;;28.79;38.54;96987.06;5010833;28;1582;-50
2021/07/30 08:35:54;;;;;;;;;;;;;;;28.72;38.70;96981.53;5012880;28;1089;-49
2021/07/30 08:38:19;;;;;;;;;;;;;;;28.65;39.19;96988.44;5011903;28;1556;-48
2021/07/30 08:40:44;;;;;;;;;;;;;;;28.72;38.77;96993.97;5009359;28;1773;-49
2021/07/30 08:43:16;;;;;;;;;;;;;;;28.70;39.00;96993.31;5013463;28;1034;-49
2021/07/30 08:45:45;;;;;;;;;;;;;;;28.75;38.91;96991.00;5007474;28;1644;-50
2021/07/30 08:48:10;;;;;;;;;;;;;;;28.80;38.86;96983.41;4992518;28;1119;-49
2021/07/30 08:50:36;;;;;;;;;;;;;;;28.59;39.22;96984.56;5008720;28;1383;-50
2021/07/30 08:53:02;;;;;;;;;;;;;;;28.58;39.16;96977.59;5009342;28;1911;-50
2021/07/30 08:55:27;;;;;;;;;;;;;;;28.70;39.06;96975.56;5009299;28;1526;-49
2021/07/30 08:57:53;;;;;;;;;;;;;;;28.67;39.36;96981.16;5011437;28;1078;-49
2021/07/30 09:00:19;;;;;;;;;;;;;;;28.71;39.22;96979.03;5010243;28;1405;-50
2021/07/30 09:02:44;;;;;;;;;;;;;;;28.59;39.36;96986.41;5011600;28;1268;-49
2021/07/30 09:05:25;;;;;;;;;;;;;;;28.60;39.28;96985.44;5008818;28;1622;-50
2021/07/30 09:07:50;;;;;;;;;;;;;;;28.63;39.18;96978.00;5009188;28;1567;-48
2021/07/30 09:10:28;;;;;;;;;;;;;;;28.64;39.12;96978.81;5009713;28;1599;-49
2021/07/30 09:13:11;;;;;;;;;;;;;;;28.62;39.28;96968.38;5009882;28;1931;-48
2021/07/30 09:15:36;;;;;;;;;;;;;;;28.54;39.48;96978.91;5010052;28;1363;-48
2021/07/30 09:18:03;;;;;;;;;;;;;;;28.49;39.32;96967.94;5011727;28;1133;-49
2021/07/30 09:20:28;;;;;;;;;;;;;;;28.76;39.15;96971.47;5009327;28;1579;-49
2021/07/30 09:22:54;;;;;;;;;;;;;;;28.82;38.65;96971.66;5010091;28;1356;-49
2021/07/30 09:25:35;;;;;;;;;;;;;;;28.76;38.82;96972.28;5008630;28;1645;-49
2021/07/30 09:28:01;;;;;;;;;;;;;;;28.55;39.62;96964.66;5009594;28;1444;-49
2021/07/30 09:30:26;;;;;;;;;;;;;;;28.61;39.29;96965.88;5011383;28;1300;-49
2021/07/30 09:32:54;;;;;;;;;;;;;;;28.43;39.66;96963.22;5009151;28;1967;-50
2021/07/30 09:35:19;;;;;;;;;;;;;;;28.51;39.76;96965.13;4991466;28;1629;-48
2021/07/30 09:37:45;;;;;;;;;;;;;;;28.71;39.04;96955.16;5009932;28;1221;-50
2021/07/30 09:40:18;;;;;;;;;;;;;;;28.74;38.84;96953.00;5010739;28;1563;-48
2021/07/30 09:42:43;;;;;;;;;;;;;;;28.57;39.61;96948.59;5008985;28;1364;-48
2021/07/30 09:45:13;;;;;;;;;;;;;;;28.59;39.17;96946.59;5011207;28;1106;-49
2021/07/30 09:47:48;;;;;;;;;;;;;;;28.69;39.24;96938.56;5010225;28;1201;-49
2021/07/30 09:50:13;;;;;;;;;;;;;;;28.76;39.14;96944.94;5010077;28;1617;-50
2021/07/30 09:52:40;;;;;;;;;;;;;;;28.51;39.45;96928.81;5010063;28;1906;-48
2021/07/30 09:55:06;;;;;;;;;;;;;;;28.62;39.20;96933.88;5010547;28;1232;-50
2021/07/30 09:57:32;;;;;;;;;;;;;;;28.61;39.58;96928.75;5008617;28;1903;-48
2021/07/30 10:00:00;;;;;;;;;;;;;;;28.62;39.31;96912.66;5010852;28;1097;-50
2021/07/30 10:02:26;;;;;;;;;;;;;;;28.67;39.18;96914.81;5009243;28;1088;-48
2021/07/30 10:04:52;;;;;;;;;;;;;;;28.68;39.46;96915.69;5008057;28;1568;-50
2021/07/30 10:07:18;;;;;;;;;;;;;;;28.68;39.22;96911.22;5010336;28;1177;-48
2021/07/30 10:09:44;;;;;;;;;;;;;;;28.70;39.00;96908.41;5009063;28;1470;-49
2021/07/30 10:12:10;;;;;;;;;;;;;;;28.62;39.19;96899.38;5008096;28;1906;-49
2021/07/30 10:14:35;;;;;;;;;;;;;;;28.64;39.20;96897.41;4992426;28;1253;-49
2021/07/30 10:17:01;;;;;;;;;;;;;;;28.68;39.04;96897.13;5010291;28;1481;-48
2021/07/30 10:19:28;;;;;;;;;;;;;;;28.66;39.45;96899.91;5008645;28;1570;-49
2021/07/30 10:21:53;;;;;;;;;;;;;;;28.58;39.35;96892.72;5010266;28;1357;-48
2021/07/30 10:24:20;;;;;;;;;;;;;;;28.62;39.40;96895.91;4991843;28;1506;-48
2021/07/30 10:26:45;;;;;;;;;;;;;;;28.52;39.53;96892.53;5007677;28;1560;-50
2021/07/30 10:29:12;;;;;;;;;;;;;;;28.65;39.50;96877.00;4989976;28;1368;-49
2021/07/30 10:31:48;;;;;;;;;;;;;;;28.59;39.41;96882.94;5010088;28;1981;-49
2021/07/30 10:34:13;;;;;;;;;;;;;;;28.67;39.17;96876.84;5006768;28;1582;-49
2021/07/30 10:36:38;;;;;;;;;;;;;;;28.70;39.16;96881.84;5009571;28;1047;-50
2021/07/30 10:39:08;;;;;;;;;;;;;;;28.55;39.41;96882.44;5007314;28;1511;-48
2021/07/30 10:41:33;;;;;;;;;;;;;;;28.57;39.53;96879.63;5007471;28;1567;-50
2021/07/30 10:44:01;;;;;;;;;;;;;;;28.70;39.13;96872.06;5008960;28;1142;-50
2021/07/30 10:46:26;;;;;;;;;;;;;;;28.69;39.48;96872.25;5009972;28;1131;-50
2021/07/30 10:48:54;;;;;;;;;;;;;;;28.70;39.17;96871.25;5007703;28;2158;-50
2021/07/30 10:51:19;;;;;;;;;;;;;;;28.58;39.33;96866.19;5009854;28;1976;-50
2021/07/30 10:53:51;;;;;;;;;;;;;;;28.59;39.55;96861.72;5008554;28;1305;-51
2021/07/30 10:56:22;;;;;;;;;;;;;;;28.70;39.19;96858.81;5007966;28;1587;-48
2021/07/30 10:58:50;;;;;;;;;;;;;;;28.86;39.08;96856.25;5005365;28;1542;-49
2021/07/30 11:01:16;;;;;;;;;;;;;;;28.88;38.68;96866.69;5010138;28;1348;-50
2021/07/30 11:03:50;;;;;;;;;;;;;;;28.63;39.50;96850.66;5007241;28;1774;-49
2021/07/30 11:06:28;;;;;;;;;;;;;;;28.76;39.00;96860.00;5007504;28;1202;-50
2021/07/30 11:08:59;;;;;;;;;;;;;;;28.80;39.27;96850.72;5007194;28;1551;-49
2021/07/30 11:11:44;;;;;;;;;;;;;;;28.59;39.54;96843.97;5007363;28;1910;-50
2021/07/30 11:14:15;;;;;;;;;;;;;;;28.70;39.06;96842.88;5009984;28;1212;-50
2021/07/30 11:16:40;;;;;;;;;;;;;;;28.58;39.41;96847.63;5008531;28;1039;-50
2021/07/30 11:19:06;;;;;;;;;;;;;;;28.67;39.30;96847.66;5009505;28;1295;-50
2021/07/30 11:21:31;;;;;;;;;;;;;;;28.41;39.80;96853.81;4989483;28;1648;-49
2021/07/30 11:23:56;;;;;;;;;;;;;;;28.65;39.13;96846.00;4990662;28;1458;-50
2021/07/30 11:26:22;;;;;;;;;;;;;;;28.64;39.42;96839.03;5002495;28;1981;-49
2021/07/30 11:28:54;;;;;;;;;;;;;;;28.78;38.90;96839.44;5008405;28;1192;-50
2021/07/30 11:31:20;;;;;;;;;;;;;;;28.53;39.64;96844.63;5006909;28;1979;-50
2021/07/30 11:33:45;;;;;;;;;;;;;;;28.56;39.44;96848.78;5008634;28;1260;-50
2021/07/30 11:36:13;;;;;;;;;;;;;;;28.78;39.06;96836.78;5008850;28;1787;-50
2021/07/30 11:38:54;;;;;;;;;;;;;;;28.73;39.27;96847.03;5013499;28;1169;-50
2021/07/30 11:41:20;;;;;;;;;;;;;;;28.55;39.74;96837.34;5010362;28;1622;-50
2021/07/30 11:43:55;;;;;;;;;;;;;;;28.70;39.37;96847.38;5012800;28;1110;-50
2021/07/30 11:46:21;;;;;;;;;;;;;;;28.57;39.37;96845.13;5009852;28;1729;-50
2021/07/30 11:48:46;;;;;;;;;;;;;;;28.60;39.68;96828.91;5012102;28;1047;-50
2021/07/30 11:51:11;;;;;;;;;;;;;;;28.59;39.54;96825.41;5012564;28;1914;-49
2021/07/30 11:53:38;;;;;;;;;;;;;;;28.58;39.48;96830.88;4995319;28;1237;-50
2021/07/30 11:56:03;;;;;;;;;;;;;;;28.57;39.60;96829.22;5010693;28;1546;-50
2021/07/30 11:58:28;;;;;;;;;;;;;;;28.55;39.63;96821.41;5013213;28;1206;-50
2021/07/30 12:00:53;;;;;;;;;;;;;;;28.64;39.22;96816.97;5012184;28;1386;-50
2021/07/30 12:03:19;;;;;;;;;;;;;;;28.81;39.05;96817.88;4994476;28;1665;-49
2021/07/30 12:05:44;;;;;;;;;;;;;;;28.55;39.52;96813.47;5011836;28;1359;-50
2021/07/30 12:08:09;;;;;;;;;;;;;;;28.67;39.20;96811.34;4993664;28;1391;-49
2021/07/30 12:10:36;;;;;;;;;;;;;;;28.62;39.34;96800.41;4992674;28;1573;-48
2021/07/30 12:13:02;;;;;;;;;;;;;;;28.56;39.64;96804.50;4994871;28;1972;-50
2021/07/30 12:15:27;;;;;;;;;;;;;;;28.62;39.58;96792.44;5011638;28;1958;-49
2021/07/30 12:18:02;;;;;;;;;;;;;;;28.78;38.94;96786.38;5012407;28;1117;-50
2021/07/30 12:20:31;;;;;;;;;;;;;;;28.69;39.28;96787.34;5008301;28;1789;-49
2021/07/30 12:23:00;;;;;;;;;;;;;;;28.64;39.25;96785.97;5012272;28;1080;-48
2021/07/30 12:25:40;;;;;;;;;;;;;;;28.67;39.30;96781.34;5009261;28;1626;-50
2021/07/30 12:28:05;;;;;;;;;;;;;;;28.60;39.46;96779.34;5012740;28;1090;-49
2021/07/30 12:30:30;;;;;;;;;;;;;;;28.43;39.99;96782.88;5011533;28;1261;-50
2021/07/30 12:32:55;;;;;;;;;;;;;;;28.52;39.46;96774.00;5012527;28;1894;-50
2021/07/30 12:35:29;;;;;;;;;;;;;;;28.59;39.65;96775.00;5010394;28;2049;-50
2021/07/30 12:38:02;;;;;;;;;;;;;;;28.69;39.17;96774.91;5011900;28;1007;-48
2021/07/30 12:40:27;;;;;;;;;;;;;;;28.88;38.83;96771.97;5008813;28;1531;-50
2021/07/30 12:43:12;;;;;;;;;;;;;;;28.62;39.65;96764.09;5011914;28;1198;-48
2021/07/30 12:45:38;;;;;;;;;;;;;;;28.68;39.62;96759.16;5010797;28;1238;-49
2021/07/30 12:48:03;;;;;;;;;;;;;;;28.51;39.62;96745.78;5010757;28;1434;-49
2021/07/30 12:53:07;;;;;;;;;;;;;;;28.70;39.23;96747.38;5071138;22;1902;-53
2021/07/30 12:55:51;;;;;;;;;;;;;;;28.71;39.25;96745.53;5046228;28;1533;-55
2021/07/30 12:58:26;;;;;;;;;;;;;;;28.65;39.25;96739.03;5051038;28;1213;-54